»·PEaware :: ASA1151 KSEA-KDEN

ASA1151 :: KSEA-KDEN

FLIGHT INFORMATION

Flight Status: Arrived
Operator:
Alaska Airlines
More flights by this operator :: More flights under this callsign
Pilot: Michael F. (26726)
Aircraft: BOEING 737-800
(B738)
More flights by this aircraft type
Origin: KSEA Seattle-Tacoma Intl
United States
Destination: KDEN Denver Intl
United States
More flights between these airports :: More routes between these airports
Route: SUMMA2 SUMMA LTJ IMB KU78K PERTY KAMPR LONGZ1
File this flight plan on PilotEdge
Remarks: RMK / SIMBRIEF
Altitude:
(Current/Filed)
35,000ft
Speed:
(Current/Filed)
458kts
Departed: 09-Nov-20 08:18 PM
Arrived: 09-Nov-20 10:30 PM
Distance/Time
Traveled:
887nm/2:12
Distance/Time
To Go:
Arrived

Flight Plot

Page will automatically refresh every two minutes.

Flight plan parsing failed; only flown route is shown


Map Options




Map Legend


Flown Route
Filed Route
Departure Airport
Arrival Airport
Navaid (VOR, NDB)
Fix

Horizontal Profiles

Position Reports

Time Latitude Longitude Heading Altitude Ground
Speed
09-Nov-20 19:47 47.446446 -122.300251 152 442ft 0kts
09-Nov-20 19:48 47.446446 -122.300251 152 442ft 0kts
09-Nov-20 19:49 47.446446 -122.300251 152 442ft 0kts
09-Nov-20 19:50 47.446446 -122.300251 152 442ft 0kts
09-Nov-20 19:51 47.446446 -122.300251 152 442ft 0kts
09-Nov-20 19:52 47.446446 -122.300251 152 442ft 0kts
09-Nov-20 19:53 47.446446 -122.300251 152 442ft 0kts
09-Nov-20 19:54 47.446446 -122.300251 152 442ft 0kts
09-Nov-20 19:55 47.446446 -122.300251 152 442ft 0kts
09-Nov-20 19:56 47.446446 -122.300251 152 442ft 0kts
09-Nov-20 19:57 47.446475 -122.300274 152 442ft 1kts
09-Nov-20 19:58 47.446922 -122.300885 70 442ft 2kts
09-Nov-20 19:59 47.446811 -122.301250 63 442ft 0kts
09-Nov-20 20:00 47.446811 -122.301250 63 442ft 0kts
09-Nov-20 20:01 47.446811 -122.301250 63 442ft 0kts
09-Nov-20 20:02 47.446811 -122.301250 63 442ft 0kts
09-Nov-20 20:03 47.447696 -122.299958 40 442ft 5kts
09-Nov-20 20:04 47.447305 -122.300868 239 442ft 8kts
09-Nov-20 20:05 47.447221 -122.302769 293 442ft 2kts
09-Nov-20 20:06 47.447416 -122.303428 293 442ft 0kts
09-Nov-20 20:07 47.447431 -122.303479 293 442ft 1kts
09-Nov-20 20:08 47.447588 -122.304614 287 442ft 0kts
09-Nov-20 20:09 47.447589 -122.304617 287 442ft 0kts
09-Nov-20 20:10 47.447598 -122.304665 285 442ft 3kts
09-Nov-20 20:11 47.449460 -122.306277 1 442ft 12kts
09-Nov-20 20:12 47.453649 -122.306292 1 442ft 16kts
09-Nov-20 20:13 47.458255 -122.306199 1 442ft 16kts
09-Nov-20 20:14 47.462555 -122.306183 359 442ft 11kts
09-Nov-20 20:15 47.463610 -122.306384 296 442ft 0kts
09-Nov-20 20:16 47.463612 -122.306392 296 442ft 0kts
09-Nov-20 20:17 47.461177 -122.307824 179 442ft 49kts
09-Nov-20 20:18 47.422972 -122.307715 180 2152ft 172kts
09-Nov-20 20:19 47.366060 -122.307246 181 4412ft 235kts
09-Nov-20 20:20 47.299918 -122.308496 183 7756ft 248kts
09-Nov-20 20:21 47.230395 -122.284364 160 10605ft 285kts
09-Nov-20 20:22 47.147019 -122.248473 167 12055ft 345kts
09-Nov-20 20:23 47.051288 -122.200418 167 14487ft 372kts
09-Nov-20 20:24 46.951383 -122.151136 167 17236ft 386kts
09-Nov-20 20:25 46.847572 -122.100106 167 19714ft 401kts
09-Nov-20 20:26 46.739877 -122.047382 166 21860ft 417kts
09-Nov-20 20:27 46.628051 -121.991427 156 23775ft 433kts
09-Nov-20 20:28 46.524595 -121.893791 149 25411ft 451kts
09-Nov-20 20:29 46.419300 -121.790098 148 26853ft 463kts
09-Nov-20 20:30 46.311790 -121.683747 148 28113ft 473kts
09-Nov-20 20:31 46.202351 -121.575485 148 29197ft 481kts
09-Nov-20 20:32 46.090933 -121.466098 148 30114ft 487kts
09-Nov-20 20:33 45.978062 -121.355924 148 30819ft 493kts
09-Nov-20 20:35 45.864041 -121.245181 149 31646ft 494kts
09-Nov-20 20:36 45.750431 -121.135377 149 32503ft 492kts
09-Nov-20 20:37 45.645551 -121.010135 139 33342ft 492kts
09-Nov-20 20:38 45.545633 -120.876458 139 34104ft 490kts
09-Nov-20 20:39 45.445981 -120.744174 139 34788ft 490kts
09-Nov-20 20:40 45.345897 -120.612118 139 35186ft 491kts
09-Nov-20 20:41 45.245971 -120.480977 139 35184ft 489kts
09-Nov-20 20:42 45.145947 -120.350363 140 35183ft 487kts
09-Nov-20 20:43 45.046118 -120.220671 140 35181ft 486kts
09-Nov-20 20:44 44.946336 -120.091685 140 35180ft 486kts
09-Nov-20 20:45 44.846347 -119.963075 140 35181ft 486kts
09-Nov-20 20:46 44.746459 -119.835213 140 35180ft 485kts
09-Nov-20 20:47 44.648634 -119.704441 125 35132ft 486kts
09-Nov-20 20:48 44.577712 -119.543360 122 35177ft 486kts
09-Nov-20 20:49 44.508630 -119.379914 121 35185ft 486kts
09-Nov-20 20:50 44.444320 -119.213734 113 35166ft 486kts
09-Nov-20 20:51 44.391380 -119.039621 114 35187ft 485kts
09-Nov-20 20:52 44.338102 -118.867012 114 35188ft 484kts
09-Nov-20 20:53 44.284392 -118.694492 114 35189ft 483kts
09-Nov-20 20:53 44.239744 -118.552010 114 35191ft 482kts
09-Nov-20 20:54 44.185779 -118.380855 114 35194ft 481kts
09-Nov-20 20:55 44.131807 -118.210802 114 35199ft 480kts
09-Nov-20 20:56 44.077494 -118.040783 114 35205ft 480kts
09-Nov-20 20:58 44.013864 -117.842984 114 35214ft 480kts
09-Nov-20 20:58 43.968270 -117.702158 114 35233ft 480kts
09-Nov-20 20:59 43.913139 -117.532867 114 35245ft 480kts
09-Nov-20 21:00 43.857916 -117.364369 114 35252ft 481kts
09-Nov-20 21:01 43.802308 -117.195768 114 35254ft 480kts
09-Nov-20 21:02 43.746460 -117.027504 113 35255ft 481kts
09-Nov-20 21:03 43.690866 -116.860179 113 35251ft 479kts
09-Nov-20 21:04 43.634850 -116.692250 113 35252ft 480kts
09-Nov-20 21:05 43.578513 -116.525460 113 35252ft 479kts
09-Nov-20 21:06 43.521991 -116.359332 113 35246ft 479kts
09-Nov-20 21:07 43.465105 -116.193200 113 35235ft 478kts
09-Nov-20 21:08 43.408190 -116.028003 113 35230ft 478kts
09-Nov-20 21:09 43.350834 -115.862526 112 35227ft 478kts
09-Nov-20 21:10 43.293458 -115.697999 112 35225ft 478kts
09-Nov-20 21:11 43.235674 -115.533285 112 35223ft 478kts
09-Nov-20 21:12 43.177676 -115.368952 112 35218ft 478kts
09-Nov-20 21:13 43.119608 -115.205395 112 35212ft 478kts
09-Nov-20 21:14 43.061065 -115.041466 112 35204ft 478kts
09-Nov-20 21:15 43.002560 -114.878606 112 35196ft 477kts
09-Nov-20 21:16 42.943707 -114.715723 112 35196ft 478kts
09-Nov-20 21:17 42.884763 -114.553549 112 35200ft 477kts
09-Nov-20 21:18 42.825646 -114.391822 111 35202ft 477kts
09-Nov-20 21:19 42.766228 -114.230214 111 35201ft 477kts
09-Nov-20 21:20 42.706667 -114.069140 111 35194ft 477kts
09-Nov-20 21:21 42.646756 -113.908045 111 35186ft 476kts
09-Nov-20 21:22 42.586879 -113.747948 112 35180ft 474kts
09-Nov-20 21:23 42.527174 -113.589189 112 35179ft 473kts
09-Nov-20 21:24 42.467113 -113.430387 112 35180ft 473kts
09-Nov-20 21:25 42.406852 -113.271942 112 35181ft 472kts
09-Nov-20 21:26 42.346538 -113.114223 113 35182ft 471kts
09-Nov-20 21:27 42.286368 -112.957734 113 35183ft 469kts
09-Nov-20 21:28 42.225994 -112.801567 114 35185ft 468kts
09-Nov-20 21:29 42.165585 -112.646147 114 35187ft 466kts
09-Nov-20 21:30 42.105351 -112.492002 114 35186ft 465kts
09-Nov-20 21:31 42.044941 -112.338226 115 35185ft 463kts
09-Nov-20 21:32 41.984702 -112.185697 115 35182ft 462kts
09-Nov-20 21:33 41.924188 -112.033275 115 35185ft 461kts
09-Nov-20 21:34 41.863540 -111.881310 115 35187ft 461kts
09-Nov-20 21:35 41.802873 -111.730096 115 35186ft 462kts
09-Nov-20 21:36 41.741713 -111.578438 115 35179ft 463kts
09-Nov-20 21:37 41.680083 -111.426403 115 35161ft 464kts
09-Nov-20 21:38 41.618131 -111.274367 115 35134ft 465kts
09-Nov-20 21:39 41.555970 -111.122598 115 35108ft 467kts
09-Nov-20 21:40 41.493412 -110.970644 116 35086ft 467kts
09-Nov-20 21:41 41.430585 -110.818813 116 35079ft 468kts
09-Nov-20 21:42 41.367280 -110.666607 116 35077ft 469kts
09-Nov-20 21:43 41.303831 -110.514833 116 35072ft 470kts
09-Nov-20 21:44 41.239968 -110.362845 116 35066ft 470kts
09-Nov-20 21:45 41.176077 -110.211552 116 35056ft 471kts
09-Nov-20 21:46 41.111849 -110.060231 116 35055ft 471kts
09-Nov-20 21:47 41.047232 -109.908756 117 35056ft 471kts
09-Nov-20 21:48 40.982624 -109.758043 117 35060ft 471kts
09-Nov-20 21:49 40.917486 -109.606860 118 35062ft 472kts
09-Nov-20 21:50 40.852468 -109.456710 118 35063ft 472kts
09-Nov-20 21:51 40.786953 -109.306161 118 35065ft 472kts
09-Nov-20 21:52 40.721352 -109.156158 119 35066ft 472kts
09-Nov-20 21:53 40.669984 -108.999472 92 35007ft 464kts
09-Nov-20 21:54 40.659192 -108.830457 94 35062ft 463kts
09-Nov-20 21:55 40.647970 -108.660920 94 35057ft 464kts
09-Nov-20 21:56 40.636656 -108.491693 95 35054ft 465kts
09-Nov-20 21:57 40.625116 -108.322176 95 35051ft 465kts
09-Nov-20 21:58 40.613293 -108.152065 95 35048ft 466kts
09-Nov-20 21:59 40.601241 -107.982233 96 35038ft 467kts
09-Nov-20 22:00 40.588881 -107.811685 97 35033ft 468kts
09-Nov-20 22:01 40.576305 -107.641410 97 35032ft 469kts
09-Nov-20 22:02 40.563499 -107.470598 97 35032ft 469kts
09-Nov-20 22:03 40.550380 -107.299679 98 35028ft 469kts
09-Nov-20 22:04 40.537014 -107.129117 98 35019ft 469kts
09-Nov-20 22:05 40.523371 -106.958347 99 34998ft 470kts
09-Nov-20 22:06 40.509473 -106.787735 99 34875ft 473kts
09-Nov-20 22:07 40.495152 -106.615727 99 32562ft 474kts
09-Nov-20 22:08 40.480220 -106.444005 99 30294ft 472kts
09-Nov-20 22:09 40.464656 -106.273387 99 28035ft 470kts
09-Nov-20 22:10 40.449472 -106.106942 98 25832ft 446kts
09-Nov-20 22:11 40.435685 -105.949828 98 23764ft 422kts
09-Nov-20 22:12 40.415026 -105.799874 103 21751ft 408kts
09-Nov-20 22:13 40.392927 -105.661930 104 20892ft 366kts
09-Nov-20 22:14 40.373118 -105.537848 103 18335ft 323kts
09-Nov-20 22:15 40.354321 -105.421283 104 16755ft 326kts
09-Nov-20 22:16 40.337264 -105.306067 102 15580ft 320kts
09-Nov-20 22:17 40.321857 -105.192148 102 14755ft 316kts
09-Nov-20 22:18 40.306749 -105.081327 103 13950ft 292kts
09-Nov-20 22:19 40.293120 -104.982099 103 13236ft 268kts
09-Nov-20 22:20 40.279894 -104.886354 103 12268ft 264kts
09-Nov-20 22:21 40.266889 -104.792359 103 11266ft 259kts
09-Nov-20 22:22 40.237321 -104.711892 148 10610ft 248kts
09-Nov-20 22:23 40.176217 -104.682400 185 10126ft 213kts
09-Nov-20 22:24 40.110928 -104.684137 182 9245ft 252kts
09-Nov-20 22:25 40.047281 -104.685118 180 8445ft 238kts
09-Nov-20 22:26 39.986217 -104.685721 182 7148ft 191kts
09-Nov-20 22:27 39.938890 -104.686375 184 6282ft 152kts
09-Nov-20 22:28 39.897977 -104.686848 184 5529ft 143kts
09-Nov-20 22:29 39.876180 -104.687091 180 5440ft 17kts
09-Nov-20 22:30 39.875085 -104.685673 93 5440ft 0kts
09-Nov-20 22:31 39.874845 -104.683909 152 5440ft 12kts
09-Nov-20 22:32 39.872009 -104.683822 180 5440ft 9kts
09-Nov-20 22:34 39.868120 -104.683842 179 5440ft 25kts
09-Nov-20 22:35 39.864210 -104.682196 124 5440ft 9kts
09-Nov-20 22:36 39.862384 -104.681946 179 5440ft 5kts
09-Nov-20 22:37 39.861348 -104.679910 123 5440ft 5kts
09-Nov-20 22:38 39.860848 -104.679302 63 5440ft 9kts
09-Nov-20 22:39 39.863816 -104.679588 10 5440ft 11kts
09-Nov-20 22:40 39.863646 -104.678726 176 5440ft 1kts
09-Nov-20 22:41 39.863617 -104.678725 178 5440ft 0kts
09-Nov-20 22:42 39.863617 -104.678725 178 5440ft 0kts
09-Nov-20 22:43 39.863617 -104.678725 178 5440ft 0kts
09-Nov-20 22:44 39.863617 -104.678725 178 5440ft 0kts
09-Nov-20 22:45 39.863617 -104.678725 178 5440ft 0kts

Navigation Log

Ident Type
Flight plan parsing failed, navigation log unavailable